Aviation WX

[Source: ADDS]
METAR
KDUJ 022053Z AUTO 29007G15KT 10SM CLR 16/09 A2991 RMK AO2 SLP125 T01560089 58002 =
TAF
KDUJ 021803Z 0218/0318 29010KT P6SM SCT018 BKN026 BKN030 FM030600 05005KT P6SM BKN010 =